Nearby METAR Reports

 

EGDY - Yeovilton (navy), United Kingdom
Distance from station: NNW 26mi, 42km
Updated: 29/06/2022 23:20
Mostly cloudy
Mostly cloudy
 Wind from S
Wind: S 2 mph , 4 km/h
Temperature: 14°C
Dew Point: 12°C
Humidity: 88%
Barometer: 1011 hPa
Clouds: Mostly cloudy
Visibility: 6 miles , 10 km
Cloud details: Few Clouds 762 m
Mostly cloudy 3658 m
2022/06/29 21:20 EGDY 292120Z 17002KT 9999 FEW025 BKN120 14/12 Q1011 TEMPO 7000 -SHRA SCT020 RMK BLU TEMPO WHT
EGHH - Bournemouth Airp, United Kingdom
Distance from station: ENE 28mi, 45km
Updated: 29/06/2022 23:50
Few Clouds
Few Clouds
 Wind from SSW
Wind: SSW 5 mph , 7 km/h
Temperature: 14°C
Dew Point: 12°C
Humidity: 88%
Barometer: 1011 hPa
Clouds: Few Clouds
Visibility: 6 miles , 10 km
Cloud details: Few Clouds 762 m
2022/06/29 21:50 EGHH 292150Z 21004KT 9999 FEW025 14/12 Q1011
 
EGTE - Exeter Airport, United Kingdom
Distance from station: W 43mi, 70km
Updated: 29/06/2022 23:50
Few Clouds
Few Clouds
 Wind from S
Wind: S 6 mph , 9 km/h
Temperature: 13°C
Dew Point: 11°C
Humidity: 88%
Barometer: 1011 hPa
Clouds: Few Clouds
Visibility: 6 miles , 10 km
Cloud details: Few Clouds 762 m
2022/06/29 21:50 EGTE 292150Z 19005KT 9999 FEW025 13/11 Q1011
EGDM - Boscombe Down, United Kingdom
Distance from station: NE 47mi, 76km
Updated: 29/06/2022 22:50
Light rain, Overcast
Light rain, Overcast
 Wind from SSW
Wind: SSW 7 mph , 11 km/h
Temperature: 13°C
Dew Point: 11°C
Humidity: 88%
Barometer: 1011 hPa
Summary: Light rain
Clouds: Overcast
Visibility: 6 miles , 10 km
Cloud details: Overcast 2743 m
2022/06/29 20:50 EGDM 292050Z AUTO 20006KT 9999 -RA OVC090/// 13/11 Q1011
 
EGVP - Middle Wallop, United Kingdom
Distance from station: NE 51mi, 82km
Updated: 29/06/2022 22:50
Overcast
Overcast
 Wind from SSW
Wind: SSW 6 mph , 9 km/h
Temperature: 14°C
Dew Point: 11°C
Humidity: 82%
Barometer: 1011 hPa
Clouds: Overcast
Visibility: 6 miles , 10 km
Cloud details: Overcast 2743 m
2022/06/29 20:50 EGVP 292050Z AUTO 20005KT 9999 OVC090/// 14/11 Q1011
EGGD - Bristol/Lulsgate, United Kingdom
Distance from station: NNW 52mi, 83km
Updated: 29/06/2022 23:50
Thunderstorm
Thunderstorm
 Wind from WSW
Wind: WSW 3 mph , 6 km/h
Temperature: 12°C
Dew Point: 11°C
Humidity: 94%
Barometer: 1011 hPa
Clouds: Thunderstorm
Visibility: 6 miles , 10 km
2022/06/29 21:50 EGGD 292150Z AUTO 25003KT 190V260 9999 //////CB 12/11 Q1011
 
EGHI - Southampton Wx C, United Kingdom
Distance from station: ENE 52mi, 84km
Updated: 29/06/2022 21:50
NOT Current
Few Clouds
Few Clouds
 Wind from S
Wind: S 6 mph , 9 km/h
Temperature: 15°C
Dew Point: 12°C
Humidity: 82%
Barometer: 1011 hPa
Clouds: Few Clouds
Visibility: 6 miles , 10 km
Cloud details: Few Clouds 549 m
2022/06/29 19:50 EGHI 291950Z 18005KT 9999 FEW018 15/12 Q1011
EGJA - Alderney/Channel, United Kingdom
Distance from station: S 65mi, 104km
Updated: 29/06/2022 19:20
NOT Current
Few Clouds
Few Clouds
 Wind from SW
Wind: SW 8 mph , 13 km/h
Temperature: 14°C
Dew Point: 13°C
Humidity: 94%
Barometer: 1012 hPa
Clouds: Few Clouds
Visibility: 6 miles , 10 km
Cloud details: Few Clouds 274 m
2022/06/29 17:20 EGJA 291720Z 23007KT 9999 FEW009 14/13 Q1012
 
EGFF - Cardiff-Wales Ar, United Kingdom
Distance from station: NW 65mi, 105km
Updated: 29/06/2022 23:50
Thunderstorm
Thunderstorm
 Wind from WSW
Wind: WSW 2 mph , 4 km/h
Temperature: 12°C
Dew Point: 11°C
Humidity: 94%
Barometer: 1011 hPa
Clouds: Thunderstorm
Visibility: 6 miles , 10 km
Cloud details: Partly cloudy 1036 m
Mostly cloudy 1311 m
2022/06/29 21:50 EGFF 292150Z AUTO 25002KT 9999 SCT034/// BKN043/// //////CB 12/11 Q1011
EGVA - Fairford Raf, United Kingdom
Distance from station: NNE 77mi, 123km
Updated: 29/06/2022 23:56
Mist, Few clouds
Mist, Few clouds
 Wind from calm
Wind: Calm
Temperature: 13°C
Dew Point: 13°C
Humidity: 100%
Barometer: 1010.2 hPa
Summary: Mist
Clouds: Few Clouds
Visibility: 4 miles , 6 km
Cloud details: Few Clouds 3353 m
2022/06/29 21:56 EGVA 292156Z AUTO 00000KT 6000 BR FEW110 13/13 A2983 RMK AO2 SLP103 T01310129 $